Time;durP1;ratioP1;P1;durP2;ratioP2;P2;SDS_P1;SDS_P2;PMS_P1;PMS_P2;Temp;Humidity;BMP_temperature;BMP_pressure;BME280_temperature;BME280_humidity;BME280_pressure;Samples;Min_cycle;Max_cycle;Signal;HPM_P1;HPM_P2
2022/06/26 00:01:06;;;;;;;4.20;3.80;;;17.80;99.90;;;;;;5012105;28;20213;-74
2022/06/26 00:03:32;;;;;;;4.15;3.83;;;17.80;99.90;;;;;;5018796;28;20197;-74
2022/06/26 00:05:57;;;;;;;3.63;3.38;;;17.80;99.90;;;;;;5039625;28;20184;-74
2022/06/26 00:08:25;;;;;;;3.45;3.25;;;17.90;99.90;;;;;;5032062;28;20169;-74
2022/06/26 00:10:52;;;;;;;3.30;3.10;;;17.90;99.90;;;;;;5031996;28;20207;-74
2022/06/26 00:13:18;;;;;;;3.60;3.40;;;17.90;99.90;;;;;;5030385;28;20192;-73
2022/06/26 00:15:45;;;;;;;3.25;3.08;;;17.80;99.90;;;;;;5031824;28;20548;-74
2022/06/26 00:18:11;;;;;;;3.38;3.17;;;17.60;99.90;;;;;;5031934;28;20173;-74
2022/06/26 00:20:37;;;;;;;3.50;3.30;;;17.50;99.90;;;;;;5025251;28;20181;-74
2022/06/26 00:23:03;;;;;;;3.00;2.80;;;17.50;99.90;;;;;;5041780;28;20278;-74
2022/06/26 00:25:29;;;;;;;3.30;3.10;;;17.40;99.90;;;;;;5051729;28;20179;-75
2022/06/26 00:27:55;;;;;;;3.10;2.90;;;17.30;99.90;;;;;;5051724;28;20172;-73
2022/06/26 00:30:21;;;;;;;3.33;3.13;;;17.30;99.90;;;;;;5046833;28;20193;-73
2022/06/26 00:32:46;;;;;;;3.33;3.03;;;17.30;99.90;;;;;;5031509;28;20278;-73
2022/06/26 00:35:12;;;;;;;2.95;2.75;;;17.30;99.90;;;;;;5031605;28;20285;-73
2022/06/26 00:37:38;;;;;;;3.00;2.83;;;17.30;99.90;;;;;;5031637;28;20242;-73
2022/06/26 00:40:04;;;;;;;3.13;2.90;;;17.30;99.90;;;;;;5019884;28;20268;-74
2022/06/26 00:42:30;;;;;;;3.17;3.03;;;17.30;99.90;;;;;;5011522;28;20197;-74
2022/06/26 00:44:56;;;;;;;4.18;3.28;;;17.20;99.90;;;;;;5011840;28;20223;-74
2022/06/26 00:47:25;;;;;;;3.70;3.40;;;17.10;99.90;;;;;;5015261;28;20673;-74
2022/06/26 00:49:51;;;;;;;3.00;2.80;;;17.10;99.90;;;;;;5031694;28;20168;-73
2022/06/26 00:52:21;;;;;;;3.60;3.20;;;17.10;99.90;;;;;;5031249;28;20187;-74
2022/06/26 00:54:50;;;;;;;3.40;3.20;;;17.00;99.90;;;;;;5031613;28;20169;-73
2022/06/26 00:57:15;;;;;;;3.80;3.60;;;17.00;99.90;;;;;;5012903;28;20617;-74
2022/06/26 00:59:42;;;;;;;3.50;3.30;;;17.00;99.90;;;;;;5011801;28;20177;-74
2022/06/26 01:02:07;;;;;;;4.35;3.15;;;16.90;99.90;;;;;;5011374;28;20201;-74
2022/06/26 01:04:33;;;;;;;3.42;3.22;;;16.90;99.90;;;;;;5011585;28;20201;-73
2022/06/26 01:06:59;;;;;;;3.60;3.10;;;16.90;99.90;;;;;;5011690;28;20165;-74
2022/06/26 01:09:25;;;;;;;3.95;3.30;;;16.90;99.90;;;;;;5022773;28;20236;-74
2022/06/26 01:11:51;;;;;;;3.60;3.40;;;16.90;99.90;;;;;;5030538;28;20181;-75
2022/06/26 01:14:17;;;;;;;3.65;3.25;;;16.80;99.90;;;;;;5011818;28;20287;-74
2022/06/26 01:16:43;;;;;;;3.25;3.15;;;16.80;99.90;;;;;;5028787;28;20184;-74
2022/06/26 01:19:09;;;;;;;3.92;3.72;;;16.80;99.90;;;;;;5040003;28;20180;-74
2022/06/26 01:21:36;;;;;;;3.83;3.53;;;16.80;99.90;;;;;;5022681;28;20209;-74
2022/06/26 01:24:03;;;;;;;3.97;3.63;;;16.70;99.90;;;;;;5015843;28;20533;-74
2022/06/26 01:26:29;;;;;;;3.55;3.30;;;16.70;99.90;;;;;;5015423;28;20178;-74
2022/06/26 01:28:54;;;;;;;3.75;3.50;;;16.70;99.90;;;;;;5015601;28;20653;-74
2022/06/26 01:31:20;;;;;;;4.07;3.60;;;16.60;99.90;;;;;;5028472;28;20277;-75
2022/06/26 01:33:49;;;;;;;3.47;3.28;;;16.70;99.90;;;;;;5034931;28;20299;-74
2022/06/26 01:36:16;;;;;;;2.95;2.75;;;16.60;99.90;;;;;;5030788;28;20178;-74
2022/06/26 01:38:42;;;;;;;3.10;2.95;;;16.60;99.90;;;;;;5041466;28;20260;-74
2022/06/26 01:41:08;;;;;;;3.88;3.28;;;16.60;99.90;;;;;;5039368;28;20596;-74
2022/06/26 01:43:36;;;;;;;3.58;3.38;;;16.60;99.90;;;;;;5035316;28;20255;-74
2022/06/26 01:46:04;;;;;;;4.28;3.53;;;16.60;99.90;;;;;;5035827;28;20187;-74
2022/06/26 01:48:31;;;;;;;3.47;3.17;;;16.50;99.90;;;;;;5019029;28;20652;-74
2022/06/26 01:50:59;;;;;;;3.67;3.47;;;16.50;99.90;;;;;;5025594;28;20191;-74
2022/06/26 01:53:26;;;;;;;3.75;3.47;;;16.40;99.90;;;;;;5045815;28;20191;-74
2022/06/26 01:55:52;;;;;;;3.65;3.35;;;16.40;99.90;;;;;;5046663;28;20188;-74
2022/06/26 01:58:17;;;;;;;4.78;3.85;;;16.50;99.90;;;;;;5034420;28;20181;-74
2022/06/26 02:00:46;;;;;;;3.55;3.35;;;16.40;99.90;;;;;;5034413;28;20215;-74
2022/06/26 02:03:13;;;;;;;3.28;3.05;;;16.30;99.90;;;;;;5037388;28;20753;-74
2022/06/26 02:09:01;;;;;;;4.20;3.90;;;16.20;99.90;;;;;;5024533;28;20203;-74
2022/06/26 02:14:10;;;;;;;3.90;3.60;;;16.10;99.90;;;;;;5036377;28;20279;-74
2022/06/26 02:16:36;;;;;;;3.90;3.60;;;16.10;99.90;;;;;;5035824;28;20186;-75
2022/06/26 02:19:02;;;;;;;3.35;3.15;;;16.10;99.90;;;;;;5036172;28;20260;-74
2022/06/26 02:21:29;;;;;;;3.65;3.35;;;16.10;99.90;;;;;;5030314;28;20279;-73
2022/06/26 02:23:55;;;;;;;3.13;2.92;;;16.10;99.90;;;;;;5037391;28;20192;-74
2022/06/26 02:26:22;;;;;;;3.70;3.22;;;16.10;99.90;;;;;;5053477;28;20178;-74
2022/06/26 02:28:48;;;;;;;3.00;2.80;;;16.10;99.90;;;;;;5044704;28;20185;-74
2022/06/26 02:31:14;;;;;;;3.28;3.08;;;16.10;99.90;;;;;;5014088;28;20197;-74
2022/06/26 02:33:40;;;;;;;3.83;3.13;;;16.20;99.90;;;;;;5013783;28;20193;-74
2022/06/26 02:36:08;;;;;;;3.65;3.35;;;16.10;99.90;;;;;;5014021;28;20181;-74
2022/06/26 02:38:34;;;;;;;3.30;3.20;;;16.00;99.90;;;;;;5013783;28;20181;-74
2022/06/26 02:41:00;;;;;;;3.10;2.90;;;16.00;99.90;;;;;;5013714;28;20239;-74
2022/06/26 02:43:26;;;;;;;3.40;3.20;;;16.00;99.90;;;;;;5013558;28;20672;-74
2022/06/26 02:45:53;;;;;;;2.95;2.85;;;15.90;99.90;;;;;;5014159;28;20257;-74
2022/06/26 02:48:20;;;;;;;2.92;2.83;;;15.80;99.90;;;;;;5013757;28;20205;-74
2022/06/26 02:50:47;;;;;;;3.47;3.22;;;15.80;99.90;;;;;;5013653;28;20204;-77
2022/06/26 02:53:13;;;;;;;3.63;3.33;;;15.80;99.90;;;;;;5013353;28;20271;-74
2022/06/26 02:55:39;;;;;;;4.18;3.78;;;15.80;99.90;;;;;;5014260;28;20630;-74
2022/06/26 02:58:04;;;;;;;3.58;3.38;;;15.80;99.90;;;;;;5013595;28;20223;-74
2022/06/26 03:00:30;;;;;;;3.75;3.55;;;15.70;99.90;;;;;;5013634;28;20252;-73
2022/06/26 03:02:56;;;;;;;4.25;3.95;;;15.70;99.90;;;;;;5013144;28;20719;-74
2022/06/26 03:05:22;;;;;;;4.63;4.32;;;15.70;99.90;;;;;;5013470;28;20249;-74
2022/06/26 03:07:47;;;;;;;5.07;4.35;;;15.70;99.90;;;;;;5012094;28;20176;-74
2022/06/26 03:10:13;;;;;;;4.18;3.95;;;15.80;99.90;;;;;;5013068;28;20169;-74
2022/06/26 03:12:43;;;;;;;5.60;5.20;;;15.80;99.90;;;;;;5013008;28;20181;-74
2022/06/26 03:15:09;;;;;;;5.20;4.90;;;15.80;99.90;;;;;;5013227;28;20169;-74
2022/06/26 03:17:35;;;;;;;4.50;4.18;;;15.90;99.90;;;;;;5013260;28;20219;-74
2022/06/26 03:20:00;;;;;;;5.47;4.00;;;15.90;99.90;;;;;;5013265;28;20177;-74
2022/06/26 03:22:26;;;;;;;4.57;4.03;;;15.90;99.90;;;;;;5012871;28;20634;-74
2022/06/26 03:24:51;;;;;;;3.80;3.60;;;16.00;99.90;;;;;;5013069;28;20220;-74
2022/06/26 03:27:17;;;;;;;4.45;4.15;;;16.00;99.90;;;;;;5013110;28;20220;-73
2022/06/26 03:29:43;;;;;;;3.70;3.50;;;16.00;99.90;;;;;;5013137;28;20196;-74
2022/06/26 03:32:08;;;;;;;4.25;3.95;;;15.90;99.90;;;;;;5012791;28;20265;-73
2022/06/26 03:34:34;;;;;;;3.80;3.50;;;15.90;99.90;;;;;;5012976;28;20288;-73
2022/06/26 03:36:59;;;;;;;4.05;3.78;;;15.90;99.90;;;;;;5012883;28;20177;-73
2022/06/26 03:39:25;;;;;;;3.70;3.50;;;15.90;99.90;;;;;;5012178;28;20181;-73
2022/06/26 03:42:01;;;;;;;5.97;3.78;;;15.80;99.90;;;;;;5023938;28;20266;-73
2022/06/26 03:44:28;;;;;;;4.97;3.53;;;15.80;99.90;;;;;;5035017;28;20896;-73
2022/06/26 03:46:55;;;;;;;4.60;4.30;;;15.80;99.90;;;;;;5012735;28;20181;-73
2022/06/26 03:49:21;;;;;;;5.05;3.70;;;15.80;99.90;;;;;;5012584;28;20676;-73
2022/06/26 03:51:47;;;;;;;4.03;3.83;;;15.80;99.90;;;;;;5042166;28;20546;-73
2022/06/26 03:54:13;;;;;;;5.10;3.85;;;15.80;99.90;;;;;;5027756;28;20208;-74
2022/06/26 03:56:38;;;;;;;4.20;3.53;;;15.90;99.90;;;;;;5012712;28;20612;-74
2022/06/26 03:59:04;;;;;;;4.15;3.85;;;15.90;99.90;;;;;;5012627;28;20268;-73
2022/06/26 04:01:30;;;;;;;4.18;3.97;;;16.00;99.90;;;;;;5037193;28;20200;-74
2022/06/26 04:03:55;;;;;;;5.28;4.35;;;16.00;99.90;;;;;;5051679;28;20219;-74
2022/06/26 04:06:21;;;;;;;4.60;4.30;;;16.10;99.90;;;;;;5039566;28;20177;-74
2022/06/26 04:08:47;;;;;;;4.30;4.00;;;16.10;99.90;;;;;;5012453;28;20268;-73
2022/06/26 04:11:14;;;;;;;4.28;3.88;;;16.10;99.90;;;;;;5012186;28;20185;-73
2022/06/26 04:13:40;;;;;;;3.95;3.75;;;16.10;99.90;;;;;;5027455;28;20220;-73
2022/06/26 04:16:06;;;;;;;4.47;4.10;;;16.20;99.90;;;;;;5016396;28;20201;-73
2022/06/26 04:18:31;;;;;;;4.30;4.00;;;16.30;99.90;;;;;;5012151;28;20177;-73
2022/06/26 04:20:57;;;;;;;4.55;4.20;;;16.30;99.90;;;;;;5011916;28;20193;-73
2022/06/26 04:23:23;;;;;;;6.22;4.18;;;16.40;99.90;;;;;;5011831;28;20193;-74
2022/06/26 04:25:48;;;;;;;4.53;4.13;;;16.50;99.90;;;;;;5022435;28;20219;-74
2022/06/26 04:28:14;;;;;;;4.60;4.20;;;16.50;99.90;;;;;;5020879;28;20562;-74
2022/06/26 04:30:39;;;;;;;4.43;4.03;;;16.60;99.90;;;;;;5016856;28;20199;-74
2022/06/26 04:33:05;;;;;;;4.65;3.85;;;16.70;99.90;;;;;;5011585;28;20200;-74
2022/06/26 04:35:31;;;;;;;4.30;4.00;;;16.70;99.90;;;;;;5012027;28;20220;-74
2022/06/26 04:37:57;;;;;;;4.18;3.85;;;16.80;99.90;;;;;;5012039;28;20208;-73
2022/06/26 04:40:23;;;;;;;3.88;3.55;;;16.90;99.90;;;;;;5011964;28;20189;-73
2022/06/26 04:42:48;;;;;;;4.53;3.55;;;16.90;99.90;;;;;;5011633;28;20212;-73
2022/06/26 04:45:14;;;;;;;4.60;4.20;;;17.00;99.90;;;;;;5011941;28;20181;-73
2022/06/26 04:47:40;;;;;;;3.80;3.60;;;17.10;99.90;;;;;;5011872;28;20185;-73
2022/06/26 04:50:07;;;;;;;3.78;3.58;;;17.20;99.90;;;;;;5013424;28;20173;-73
2022/06/26 04:52:32;;;;;;;4.10;3.88;;;17.30;99.90;;;;;;5015546;28;20173;-73
2022/06/26 04:54:58;;;;;;;3.85;3.55;;;17.40;99.90;;;;;;5014278;28;20241;-73
2022/06/26 04:57:25;;;;;;;3.45;3.20;;;17.40;99.90;;;;;;5015863;28;20184;-73
2022/06/26 04:59:51;;;;;;;4.63;3.58;;;17.50;99.90;;;;;;5015812;28;20184;-73
2022/06/26 05:02:16;;;;;;;4.03;3.83;;;17.60;99.90;;;;;;5014684;28;20201;-73
2022/06/26 05:04:42;;;;;;;4.90;3.47;;;17.70;99.90;;;;;;5034732;28;20662;-73
2022/06/26 05:07:08;;;;;;;3.65;3.45;;;17.70;99.90;;;;;;5036769;28;20249;-74
2022/06/26 05:09:33;;;;;;;3.20;3.00;;;17.70;99.90;;;;;;5024852;28;20223;-74
2022/06/26 05:11:59;;;;;;;3.72;3.53;;;17.70;99.90;;;;;;5042958;28;20650;-74
2022/06/26 05:14:25;;;;;;;4.25;3.30;;;17.80;99.90;;;;;;5044968;28;20322;-74
2022/06/26 05:16:50;;;;;;;3.13;2.92;;;17.90;99.90;;;;;;5046171;28;20237;-74
2022/06/26 05:19:16;;;;;;;2.95;2.85;;;18.00;99.90;;;;;;5047857;28;20188;-76
2022/06/26 05:21:42;;;;;;;4.43;3.55;;;18.10;99.90;;;;;;5044912;28;20220;-75
2022/06/26 05:24:08;;;;;;;3.88;3.58;;;18.10;99.90;;;;;;5054919;28;20191;-76
2022/06/26 05:26:34;;;;;;;3.92;3.63;;;18.10;99.90;;;;;;5055000;28;20168;-77
2022/06/26 05:29:00;;;;;;;3.53;3.30;;;18.20;99.90;;;;;;5024045;28;20173;-77
2022/06/26 05:31:26;;;;;;;6.22;3.47;;;18.30;99.90;;;;;;5029157;28;20191;-76
2022/06/26 05:33:52;;;;;;;3.65;3.35;;;18.40;99.90;;;;;;5027279;28;20204;-76
2022/06/26 05:36:18;;;;;;;4.32;4.07;;;18.50;99.90;;;;;;5027821;28;20259;-76
2022/06/26 05:38:43;;;;;;;4.07;3.78;;;18.70;99.90;;;;;;5041456;28;20671;-76
2022/06/26 05:41:09;;;;;;;4.15;3.53;;;18.80;99.90;;;;;;5034983;28;20218;-76
2022/06/26 05:43:35;;;;;;;3.45;3.25;;;18.90;99.90;;;;;;5029451;28;20240;-76
2022/06/26 05:46:01;;;;;;;4.25;3.95;;;19.00;99.90;;;;;;5017302;28;20213;-76
2022/06/26 05:48:28;;;;;;;3.67;3.47;;;19.10;99.90;;;;;;5025057;28;20185;-76
2022/06/26 05:50:54;;;;;;;5.88;3.70;;;19.20;99.90;;;;;;5048574;28;20225;-76
2022/06/26 05:53:22;;;;;;;4.13;3.92;;;19.30;99.90;;;;;;5023773;28;20197;-76
2022/06/26 05:55:48;;;;;;;4.13;3.83;;;19.40;99.90;;;;;;5028256;28;20191;-76
2022/06/26 05:58:14;;;;;;;4.07;3.75;;;19.50;99.90;;;;;;5032893;28;20165;-76
2022/06/26 06:00:39;;;;;;;6.18;4.38;;;19.60;99.90;;;;;;5016435;28;20181;-76
2022/06/26 06:03:06;;;;;;;4.63;4.10;;;19.70;99.90;;;;;;5021814;28;20212;-76
2022/06/26 06:05:32;;;;;;;4.57;4.28;;;19.80;99.90;;;;;;5024177;28;20182;-76
2022/06/26 06:07:58;;;;;;;4.40;4.00;;;19.90;99.90;;;;;;5027648;28;20632;-76
2022/06/26 06:10:25;;;;;;;4.68;4.28;;;20.00;99.90;;;;;;5023852;28;20252;-76
2022/06/26 06:12:52;;;;;;;4.47;4.18;;;20.10;99.90;;;;;;5027448;28;20242;-76
2022/06/26 06:15:18;;;;;;;4.40;4.00;;;20.20;99.90;;;;;;5020366;28;20550;-76
2022/06/26 06:17:44;;;;;;;4.22;3.80;;;20.30;99.90;;;;;;5014979;28;20189;-76
2022/06/26 06:20:12;;;;;;;4.40;4.13;;;20.40;99.90;;;;;;5021015;28;20551;-77
2022/06/26 06:22:44;;;;;;;4.20;3.90;;;20.50;99.90;;;;;;5024264;28;20212;-76
2022/06/26 06:25:10;;;;;;;4.40;4.10;;;20.60;99.90;;;;;;5014084;28;20208;-76
2022/06/26 06:27:37;;;;;;;4.10;3.80;;;20.70;99.90;;;;;;5031002;28;20217;-77
2022/06/26 06:30:05;;;;;;;3.80;3.60;;;20.70;99.90;;;;;;5042692;28;20193;-77
2022/06/26 06:32:30;;;;;;;3.85;3.65;;;20.80;99.90;;;;;;5028720;28;20529;-76
2022/06/26 06:34:56;;;;;;;4.07;3.78;;;20.90;99.90;;;;;;5040473;28;20179;-76
2022/06/26 06:37:21;;;;;;;3.45;3.25;;;21.00;99.90;;;;;;5014007;28;20176;-77
2022/06/26 06:39:47;;;;;;;3.55;3.30;;;21.10;99.90;;;;;;5013828;28;20188;-79
2022/06/26 06:42:13;;;;;;;3.92;3.03;;;21.20;99.90;;;;;;5024111;28;20669;-77
2022/06/26 06:44:38;;;;;;;3.40;3.20;;;21.20;99.90;;;;;;5024414;28;20205;-77
2022/06/26 06:47:05;;;;;;;3.78;2.92;;;21.20;99.90;;;;;;5028093;28;20176;-77
2022/06/26 06:49:31;;;;;;;3.33;3.00;;;21.30;99.90;;;;;;5023080;28;20181;-77
2022/06/26 06:51:57;;;;;;;4.93;3.28;;;21.40;99.90;;;;;;5029090;28;20187;-78
2022/06/26 06:54:22;;;;;;;3.38;3.10;;;21.40;99.90;;;;;;5026399;28;20550;-77
2022/06/26 06:56:48;;;;;;;3.33;3.05;;;21.50;99.90;;;;;;5023170;28;20187;-77
2022/06/26 06:59:14;;;;;;;3.50;3.17;;;21.60;99.90;;;;;;5015744;28;20193;-77
2022/06/26 07:01:40;;;;;;;2.80;2.60;;;21.60;99.90;;;;;;5020288;28;20209;-77
2022/06/26 07:04:06;;;;;;;2.50;2.40;;;21.70;99.90;;;;;;5022489;28;20660;-77
2022/06/26 07:06:32;;;;;;;4.55;2.65;;;21.90;99.90;;;;;;5022391;28;20185;-77
2022/06/26 07:08:58;;;;;;;2.20;2.10;;;22.00;99.90;;;;;;5032718;28;20539;-76
2022/06/26 07:11:23;;;;;;;2.08;1.98;;;22.20;99.90;;;;;;5038412;28;20616;-76
2022/06/26 07:13:49;;;;;;;1.90;1.80;;;22.30;99.90;;;;;;5035406;28;20215;-77
2022/06/26 07:16:15;;;;;;;2.47;2.33;;;22.40;99.90;;;;;;5042786;28;20599;-76
2022/06/26 07:18:40;;;;;;;2.40;2.20;;;22.50;99.90;;;;;;5044551;28;20179;-75
2022/06/26 07:21:07;;;;;;;2.05;1.85;;;22.70;99.90;;;;;;5052738;28;20183;-75
2022/06/26 07:23:33;;;;;;;2.83;2.63;;;22.80;99.90;;;;;;5026802;28;20493;-76
2022/06/26 07:25:59;;;;;;;2.30;2.20;;;22.90;99.90;;;;;;5021375;28;20264;-75
2022/06/26 07:28:24;;;;;;;3.17;2.28;;;23.00;99.90;;;;;;5021116;28;20180;-75
2022/06/26 07:30:50;;;;;;;2.10;2.00;;;23.00;99.90;;;;;;5012592;28;20193;-75
2022/06/26 07:36:00;;;;;;;2.30;2.20;;;23.20;99.90;;;;;;5025709;28;20527;-76
2022/06/26 07:38:25;;;;;;;2.33;2.22;;;23.30;99.90;;;;;;5020110;28;20200;-76
2022/06/26 07:40:52;;;;;;;2.20;2.10;;;23.40;99.90;;;;;;5020721;28;20192;-76
2022/06/26 07:43:18;;;;;;;2.17;2.08;;;23.50;99.90;;;;;;5021931;28;20201;-76
2022/06/26 07:45:43;;;;;;;1.98;1.80;;;23.50;99.90;;;;;;5028127;28;20183;-77
2022/06/26 07:48:09;;;;;;;2.10;1.90;;;23.60;99.90;;;;;;5023078;28;20185;-77
2022/06/26 07:50:35;;;;;;;1.67;1.58;;;23.70;99.90;;;;;;5018609;28;20641;-76
2022/06/26 07:53:00;;;;;;;2.00;1.83;;;23.70;99.90;;;;;;5025696;28;20267;-77
2022/06/26 07:55:26;;;;;;;3.28;1.90;;;23.80;99.90;;;;;;5026770;28;20180;-78
2022/06/26 07:57:52;;;;;;;2.20;2.10;;;23.80;99.90;;;;;;5028944;28;20492;-78
2022/06/26 08:00:17;;;;;;;1.73;1.63;;;23.90;99.90;;;;;;5019154;28;20264;-77
2022/06/26 08:02:43;;;;;;;1.60;1.50;;;24.10;99.90;;;;;;5027016;28;20246;-78
2022/06/26 08:05:09;;;;;;;1.83;1.73;;;24.20;99.90;;;;;;5024175;28;20176;-77
2022/06/26 08:07:34;;;;;;;2.03;1.85;;;24.20;99.90;;;;;;5028883;28;20169;-77
2022/06/26 08:10:00;;;;;;;1.90;1.80;;;24.40;99.90;;;;;;5022349;28;20598;-76
2022/06/26 08:12:25;;;;;;;1.70;1.60;;;24.50;99.90;;;;;;5025783;28;20185;-77
2022/06/26 08:14:51;;;;;;;3.38;1.80;;;24.50;99.90;;;;;;5023540;28;20185;-76
2022/06/26 08:17:17;;;;;;;1.98;1.88;;;24.50;99.90;;;;;;5019836;28;20181;-76
2022/06/26 08:19:42;;;;;;;1.60;1.60;;;24.60;99.90;;;;;;5012885;28;20634;-76
2022/06/26 08:22:08;;;;;;;4.22;2.08;;;24.70;99.90;;;;;;5038707;28;20672;-75
2022/06/26 08:24:36;;;;;;;1.88;1.77;;;24.70;99.90;;;;;;5040250;28;20192;-76
2022/06/26 08:27:02;;;;;;;1.70;1.70;;;24.80;99.90;;;;;;5011735;28;20525;-76
2022/06/26 08:29:28;;;;;;;2.28;1.73;;;24.70;99.90;;;;;;5012156;28;20200;-76
2022/06/26 08:31:54;;;;;;;1.88;1.70;;;24.70;99.90;;;;;;5036501;28;20728;-77
2022/06/26 08:34:20;;;;;;;2.05;1.95;;;24.70;99.90;;;;;;5039155;28;20204;-77
2022/06/26 08:36:45;;;;;;;1.63;1.63;;;24.70;99.90;;;;;;5023790;28;20217;-76
2022/06/26 08:39:12;;;;;;;1.88;1.77;;;24.90;99.90;;;;;;5044428;28;20602;-75
2022/06/26 08:41:41;;;;;;;1.80;1.70;;;25.00;99.90;;;;;;5048837;28;20211;-75
2022/06/26 08:44:07;;;;;;;1.60;1.50;;;25.10;99.90;;;;;;5011457;28;20288;-75
2022/06/26 08:46:37;;;;;;;1.65;1.58;;;25.20;99.90;;;;;;5011828;28;20169;-74
2022/06/26 08:49:09;;;;;;;1.20;1.20;;;25.30;99.90;;;;;;5011916;28;20173;-75
2022/06/26 08:51:40;;;;;;;1.58;1.58;;;25.40;99.90;;;;;;5028698;28;20725;-75
2022/06/26 08:54:06;;;;;;;1.40;1.40;;;25.40;99.90;;;;;;5011822;28;20676;-74
2022/06/26 08:56:33;;;;;;;1.70;1.60;;;25.50;99.90;;;;;;5014006;28;20230;-76
2022/06/26 08:58:59;;;;;;;1.83;1.60;;;25.50;99.90;;;;;;5012083;28;20180;-76
2022/06/26 09:01:25;;;;;;;1.48;1.48;;;25.60;99.90;;;;;;5018470;28;20279;-75
2022/06/26 09:03:51;;;;;;;4.57;1.73;;;25.70;99.90;;;;;;5029391;28;20202;-72
2022/06/26 09:06:16;;;;;;;1.85;1.75;;;25.80;99.90;;;;;;5025367;28;20185;-75
2022/06/26 09:08:44;;;;;;;1.63;1.42;;;25.90;99.90;;;;;;5026346;28;20196;-73
2022/06/26 09:11:10;;;;;;;1.23;1.13;;;26.00;99.90;;;;;;5031494;28;20183;-73
2022/06/26 09:13:41;;;;;;;1.65;1.55;;;26.20;99.90;;;;;;5025570;28;20272;-74
2022/06/26 09:16:07;;;;;;;1.20;1.20;;;26.30;99.90;;;;;;5013440;28;20763;-73
2022/06/26 09:18:35;;;;;;;2.08;1.55;;;26.40;99.90;;;;;;5011535;28;20572;-69
2022/06/26 09:21:01;;;;;;;1.20;1.20;;;26.50;99.90;;;;;;5011038;28;20180;-69
2022/06/26 09:23:27;;;;;;;3.20;1.92;;;26.60;99.90;;;;;;5030696;28;20259;-70
2022/06/26 09:25:52;;;;;;;0.93;0.93;;;26.70;99.90;;;;;;5035732;28;20180;-69
2022/06/26 09:28:23;;;;;;;1.83;1.15;;;26.70;99.90;;;;;;5030930;28;20538;-70
2022/06/26 09:30:59;;;;;;;1.98;1.33;;;26.80;99.90;;;;;;5030975;28;20187;-69
2022/06/26 09:33:33;;;;;;;1.10;1.10;;;26.90;99.90;;;;;;5030740;28;20192;-70
2022/06/26 09:36:00;;;;;;;1.35;1.33;;;27.00;99.90;;;;;;5023777;28;20271;-70
2022/06/26 09:38:28;;;;;;;1.30;1.30;;;27.20;99.90;;;;;;5014431;28;20695;-69
2022/06/26 09:40:57;;;;;;;1.27;1.20;;;27.90;99.90;;;;;;5015337;28;20273;-70
2022/06/26 09:43:36;;;;;;;1.67;1.10;;;29.50;99.90;;;;;;5014602;28;20273;-69
2022/06/26 09:46:07;;;;;;;0.90;0.70;;;32.20;95.40;;;;;;5014969;28;20169;-70
2022/06/26 09:48:34;;;;;;;1.00;1.00;;;34.50;73.90;;;;;;5014842;28;20188;-70
2022/06/26 09:51:00;;;;;;;1.77;0.90;;;36.20;69.30;;;;;;5014941;28;20252;-69
2022/06/26 09:53:30;;;;;;;1.83;1.30;;;37.70;59.70;;;;;;5018669;28;20265;-69
2022/06/26 09:55:57;;;;;;;1.30;1.20;;;39.10;57.50;;;;;;5034438;28;20164;-70
2022/06/26 09:58:23;;;;;;;0.88;0.88;;;39.90;54.10;;;;;;5034421;28;20522;-70
2022/06/26 10:06:28;;;;;;;0.85;0.85;;;41.10;50.00;;;;;;5014904;28;20179;-70
2022/06/26 10:08:59;;;;;;;1.40;0.77;;;41.50;49.50;;;;;;5014407;28;20176;-70
2022/06/26 10:11:27;;;;;;;0.82;0.82;;;41.40;47.90;;;;;;5014301;28;20192;-70
2022/06/26 10:13:57;;;;;;;0.65;0.65;;;42.60;45.70;;;;;;5014041;28;20223;-70
2022/06/26 10:16:35;;;;;;;4.32;0.70;;;42.80;44.60;;;;;;5014323;28;20200;-70
2022/06/26 10:19:46;;;;;;;0.80;0.80;;;42.00;45.00;;;;;;5014155;28;20200;-70
2022/06/26 10:22:13;;;;;;;1.48;0.90;;;42.00;45.20;;;;;;5003911;28;20311;-70
2022/06/26 10:24:56;;;;;;;0.65;0.65;;;42.80;45.30;;;;;;5014180;28;20184;-70
2022/06/26 10:27:34;;;;;;;1.10;0.82;;;42.50;45.20;;;;;;5014117;28;20165;-71
2022/06/26 10:30:17;;;;;;;0.80;0.80;;;43.30;45.00;;;;;;5027799;28;20227;-70
2022/06/26 10:32:43;;;;;;;0.70;0.70;;;43.70;43.90;;;;;;5033478;28;20750;-70
2022/06/26 10:35:10;;;;;;;0.73;0.73;;;43.60;41.60;;;;;;5033780;28;20176;-71
2022/06/26 10:37:45;;;;;;;1.33;0.80;;;43.30;43.10;;;;;;5019485;28;20185;-70
2022/06/26 10:43:15;;;;;;;0.80;0.80;;;44.40;41.40;;;;;;5013507;28;20216;-70
2022/06/26 10:45:42;;;;;;;0.68;0.68;;;44.30;39.60;;;;;;5013663;28;20169;-71
2022/06/26 10:48:23;;;;;;;0.30;0.30;;;43.20;39.80;;;;;;5013404;28;20200;-71
2022/06/26 10:51:02;;;;;;;0.70;0.70;;;43.20;38.90;;;;;;5013909;28;20496;-70
2022/06/26 10:53:37;;;;;;;0.40;0.40;;;43.40;40.00;;;;;;5013311;28;20215;-70
2022/06/26 10:56:05;;;;;;;1.30;0.60;;;44.20;39.30;;;;;;5013504;28;20207;-70
2022/06/26 10:58:36;;;;;;;0.77;0.77;;;44.70;38.80;;;;;;5013459;28;20184;-70
2022/06/26 11:01:07;;;;;;;1.17;0.70;;;43.80;39.20;;;;;;5013515;28;20535;-71
2022/06/26 11:03:34;;;;;;;0.52;0.52;;;44.10;39.10;;;;;;5013170;28;20211;-71
2022/06/26 11:06:05;;;;;;;0.75;0.70;;;43.70;39.40;;;;;;5013294;28;20180;-70
2022/06/26 11:08:42;;;;;;;0.88;0.85;;;43.90;37.30;;;;;;5013426;28;20848;-70
2022/06/26 11:11:17;;;;;;;1.08;0.70;;;43.70;38.00;;;;;;5013186;28;20550;-71
2022/06/26 11:13:51;;;;;;;0.73;0.60;;;43.70;38.80;;;;;;5013063;28;20713;-70
2022/06/26 11:16:17;;;;;;;0.68;0.68;;;43.60;39.60;;;;;;5013101;28;20177;-70
2022/06/26 11:18:43;;;;;;;0.50;0.50;;;43.80;41.40;;;;;;5013184;28;20173;-70
2022/06/26 11:21:08;;;;;;;0.70;0.70;;;43.70;39.20;;;;;;5013076;28;20228;-70
2022/06/26 11:23:36;;;;;;;0.63;0.63;;;43.40;39.00;;;;;;5012619;28;20557;-70
2022/06/26 11:26:02;;;;;;;1.85;0.75;;;43.20;38.40;;;;;;5013000;28;20547;-70
2022/06/26 11:28:42;;;;;;;0.52;0.52;;;43.20;38.90;;;;;;5013078;28;20164;-70
2022/06/26 11:31:19;;;;;;;1.27;0.52;;;43.50;40.20;;;;;;5012892;28;20184;-71
2022/06/26 11:33:44;;;;;;;0.55;0.52;;;44.10;37.90;;;;;;5012652;28;20188;-70
2022/06/26 11:36:13;;;;;;;0.47;0.47;;;44.70;35.80;;;;;;5013127;28;20590;-71
2022/06/26 11:38:39;;;;;;;0.50;0.50;;;44.90;36.80;;;;;;5012856;28;20662;-70
2022/06/26 11:41:07;;;;;;;0.22;0.22;;;44.50;36.30;;;;;;5012735;28;20259;-71
2022/06/26 11:43:34;;;;;;;0.50;0.50;;;43.90;37.70;;;;;;5020124;28;20207;-71
2022/06/26 11:46:02;;;;;;;1.27;0.60;;;43.60;35.80;;;;;;5032450;28;20272;-71
2022/06/26 11:48:29;;;;;;;0.82;0.60;;;43.20;37.00;;;;;;5032291;28;20166;-70
2022/06/26 11:50:57;;;;;;;0.55;0.55;;;42.80;37.30;;;;;;5032296;28;20168;-70
2022/06/26 11:53:25;;;;;;;0.63;0.63;;;42.60;38.50;;;;;;5019531;28;20212;-71
2022/06/26 11:55:53;;;;;;;0.40;0.40;;;42.60;39.20;;;;;;5012519;28;20173;-71
2022/06/26 11:58:25;;;;;;;0.55;0.35;;;42.60;38.50;;;;;;5012540;28;20177;-71
2022/06/26 12:01:10;;;;;;;0.40;0.40;;;42.30;39.20;;;;;;5011934;28;20606;-71
2022/06/26 12:03:50;;;;;;;0.40;0.40;;;42.40;40.30;;;;;;5012196;28;20251;-71
2022/06/26 12:06:25;;;;;;;0.40;0.40;;;42.70;38.00;;;;;;5012350;28;20169;-71
2022/06/26 12:08:51;;;;;;;0.32;0.32;;;43.00;38.80;;;;;;5012391;28;20168;-71
2022/06/26 12:11:17;;;;;;;1.23;0.43;;;42.60;37.60;;;;;;5012099;28;20256;-70
2022/06/26 12:13:43;;;;;;;6.28;0.77;;;42.60;38.50;;;;;;5011814;28;20231;-71
2022/06/26 12:16:11;;;;;;;0.30;0.30;;;42.40;37.30;;;;;;5012212;28;20168;-71
2022/06/26 12:18:38;;;;;;;0.28;0.28;;;42.20;38.40;;;;;;5012310;28;20168;-71
2022/06/26 12:21:33;;;;;;;0.40;0.40;;;42.30;38.20;;;;;;5030230;28;20745;-71
2022/06/26 12:23:58;;;;;;;0.40;0.40;;;42.50;37.50;;;;;;5031003;28;20273;-71
2022/06/26 12:26:24;;;;;;;0.30;0.30;;;42.70;36.80;;;;;;5031836;28;20172;-71
2022/06/26 12:28:52;;;;;;;1.00;0.50;;;42.30;37.80;;;;;;5029163;28;20404;-71
2022/06/26 12:31:20;;;;;;;0.43;0.38;;;42.10;38.10;;;;;;5011961;28;20536;-71
2022/06/26 12:33:49;;;;;;;0.22;0.22;;;42.40;38.40;;;;;;5011717;28;20660;-71
2022/06/26 12:36:15;;;;;;;0.68;0.30;;;42.80;37.10;;;;;;5011945;28;20200;-71
2022/06/26 12:38:43;;;;;;;0.47;0.47;;;43.70;36.70;;;;;;5011795;28;20188;-71
2022/06/26 12:41:19;;;;;;;0.22;0.22;;;45.10;35.70;;;;;;5011873;28;20165;-71
2022/06/26 12:43:50;;;;;;;0.38;0.38;;;46.70;33.90;;;;;;5011588;28;20192;-71
2022/06/26 12:46:16;;;;;;;0.30;0.30;;;47.50;33.60;;;;;;5011590;28;20184;-71
2022/06/26 12:48:42;;;;;;;0.52;0.28;;;48.30;33.10;;;;;;5011969;28;20207;-71
2022/06/26 12:51:08;;;;;;;0.43;0.43;;;49.70;32.20;;;;;;5011709;28;20189;-72
2022/06/26 12:53:34;;;;;;;1.05;0.30;;;50.90;31.30;;;;;;5011459;28;20682;-71
2022/06/26 12:56:00;;;;;;;0.45;0.30;;;52.90;29.90;;;;;;5011700;28;20318;-72
2022/06/26 12:58:26;;;;;;;0.43;0.40;;;55.10;28.60;;;;;;5011810;28;20755;-71
2022/06/26 13:00:52;;;;;;;0.35;0.22;;;55.90;27.40;;;;;;5011817;28;20172;-71
2022/06/26 13:03:18;;;;;;;0.10;0.10;;;55.90;27.40;;;;;;5011361;28;20221;-72
2022/06/26 13:05:44;;;;;;;0.28;0.28;;;56.40;26.90;;;;;;5025825;28;20180;-72